Historyczne dane pomiarowe

Dodano dane terminowe – wersja testowa.

Dane z okresu 1951-2019

Wersja bazy: 1.34 [2019-03-16, lista zmian], aktualizacja planowana na 2019-04-15

Dane meteo z obszaru Polski uzyskane na podstawie danych udostępnionych przez Instytut Meteorologii i Gospodarki Wodnej – Państwowy Instytut Badawczy.

 

Wybierz Datę:    

       

TemperaturaWilgotnośćWiatrCiśnienieOpadyŚniegCzas trwania zjawisk
 Stacja t tx tn tng RH VA  wxwx mslp ppp RRR   cm mm wxwxwxwxwxwxwx
1994-08-14 15.2 18.5 11.4--- 3.3 1.7---- 0.0------------
1994-08-13 16.5 21.1 14.2--- 7.0 0.0---- 5.1------------
1994-08-12 15.4 20.9 12.7--- 7.0 0.0---- 7.1------------
1994-08-11 18.6 23.1 16.3--- 6.3 0.3---- 4.0------------
1994-08-10 18.8 28.1 11.2--- 1.3 0.3---- 3.3------------
1994-08-09 17.6 19.7 16.1--- 7.0 0.7---- 17.9------------
1994-08-08 19.7 27.0 16.6--- 7.3 1.0---- 8.4------------
1994-08-07 23.3 30.4 17.3--- 5.0 0.7---- 3.7------------
1994-08-06 22.9 33.4 13.5--- 3.3 1.7---- 0.0------------
1994-08-05 22.3 31.0 13.5--- 1.7 1.0---- 0.0------------
1994-08-04 22.1 29.8 14.7--- 1.3 0.7---- 0.0------------
1994-08-03 21.8 30.0 13.8--- 4.3 1.0---- 0.0------------
1994-08-02 21.3 26.7 16.0--- 7.0 0.3---- 6.2------------
1994-08-01 23.6 34.8 16.2--- 4.3 0.3---- 0.0------------
1994-07-31 24.6 34.4 14.7--- 1.3 0.3---- 0.0------------
1994-07-30 23.8 34.6 12.7--- 2.0 0.3---- 0.0------------
1994-07-29 23.0 33.7 11.7--- 0.3 1.0---- 0.0------------
1994-07-28 21.6 32.2 12.4--- 2.0 0.7---- 0.0------------
1994-07-27 22.1 32.6 13.4--- 4.0 0.3---- 0.0------------
1994-07-26 21.8 32.1 12.7--- 3.0 0.7---- 0.0------------
1994-07-25 20.7 30.0 11.5--- 2.7 0.0---- 0.0------------
1994-07-24 19.6 29.5 11.0--- 2.3 0.3---- 0.0------------
1994-07-23 19.8 28.7 8.0--- 1.0 1.3---- 0.0------------
1994-07-22 19.4 28.2 8.7--- 0.3 0.7---- 0.0------------
1994-07-21 17.7 26.6 7.7--- 0.0 1.3---- 0.0------------
1994-07-20 18.8 23.2 13.2--- 4.3 1.0---- 0.0------------
1994-07-19 18.9 24.2 14.2--- 7.3 0.0---- 4.5------------
1994-07-18 20.2 25.9 15.3--- 6.0 0.3---- 0.0------------
1994-07-17 20.0 28.0 12.4--- 4.0 0.7---- 8.5------------
1994-07-16 19.4 27.6 13.3--- 4.3 0.3---- 6.1------------
1994-07-15 19.5 27.0 11.5--- 4.7 1.0---- 0.1------------
1994-07-14 21.0 28.5 12.3--- 4.7 1.0---- 0.0------------
1994-07-13 19.5 27.0 10.9--- 3.7 1.0---- 0.0------------
1994-07-12 19.4 25.1 12.0--- 1.7 1.0---- 0.0------------
1994-07-11 17.1 24.0 10.8--- 5.7 1.0---- 0.0------------
1994-07-10 14.4 19.5 12.1--- 5.0 2.0---- 7.9------------
1994-07-09 13.9 19.4 12.4--- 7.7 0.0---- 12.5------------
1994-07-08 16.1 20.1 11.4--- 4.7 1.3---- 0.2------------
1994-07-07 17.7 24.6 10.4--- 7.7 1.0---- 5.0------------
1994-07-06 20.0 25.9 11.2--- 3.3 1.0---- 0.0------------
1994-07-05 19.7 26.6 12.4--- 6.0 1.0---- 0.0------------
1994-07-04 19.9 29.5 8.5--- 0.3 0.3---- 0.0------------
1994-07-03 18.9 27.2 8.4--- 0.3 0.7---- 0.0------------
1994-07-02 17.9 25.8 8.3--- 0.0 1.3---- 0.0------------
1994-07-01 19.5 23.7 16.3--- 3.3 1.3---- 0.0------------
1994-06-30 20.7 29.2 17.2--- 5.3 1.7---- 0.0------------
1994-06-29 23.8 31.0 14.4--- 3.3 1.0---- 0.0------------
1994-06-28 23.2 30.5 16.8--- 5.0 2.0---- 0.0------------
1994-06-27 23.7 31.4 14.6--- 1.7 0.7---- 0.0------------
1994-06-26 19.4 28.5 7.7--- 0.7 1.0---- 0.0------------
1994-06-25 15.4 25.3 2.9--- 0.0 1.3---- 0.0------------
1994-06-24 14.0 20.8 4.4--- 0.0 2.0---- 0.0------------
1994-06-23 16.9 23.1 14.1--- 6.0 2.7---- 0.4------------
1994-06-22 17.4 26.1 7.5--- 4.3 1.0---- 0.0------------
1994-06-21 14.6 21.0 6.5--- 3.0 1.0---- 0.0------------
1994-06-20 15.0 23.6 8.3--- 4.7 1.0---- 0.0------------
1994-06-19 17.6 25.6 9.9--- 4.7 1.0---- 0.4------------
1994-06-18 10.6 19.3 2.6--- 5.7 0.7---- 4.0------------
1994-06-17 10.1 14.9 8.0--- 6.3 0.0---- 5.7------------
1994-06-16 12.0 15.6 5.0--- 5.7 2.0---- 2.5------------
235.4 ms

 

Źródłem pochodzenia danych jest Instytut Meteorologii i Gospodarki Wodnej – Państwowy Instytut Badawczy. Dane Instytutu Meteorologii i Gospodarki Wodnej – Państwowego Instytutu Badawczego zostały przetworzone.

Dane źródłowe można odnaleźć na stronie https://dane.imgw.pl